Time;durP1;ratioP1;P1;durP2;ratioP2;P2;SDS_P1;SDS_P2;PMS_P1;PMS_P2;Temp;Humidity;BMP_temperature;BMP_pressure;BME280_temperature;BME280_humidity;BME280_pressure;Samples;Min_cycle;Max_cycle;Signal;HPM_P1;HPM_P2
2021/06/11 00:00:46;;;;;;;6.05;5.45;;;20.40;74.90;;;;;;4954851;28;20033;-69
2021/06/11 00:03:12;;;;;;;9.60;5.57;;;20.40;75.10;;;;;;4954603;28;20027;-70
2021/06/11 00:05:38;;;;;;;10.18;5.45;;;20.30;74.90;;;;;;4954608;28;20078;-70
2021/06/11 00:08:05;;;;;;;6.13;5.53;;;20.20;75.30;;;;;;4954423;28;20023;-70
2021/06/11 00:10:31;;;;;;;14.05;5.82;;;20.20;75.20;;;;;;4954484;28;20118;-69
2021/06/11 00:12:57;;;;;;;5.82;4.90;;;20.30;75.00;;;;;;4954328;28;20027;-69
2021/06/11 00:15:24;;;;;;;8.43;5.38;;;20.20;74.90;;;;;;4954475;28;20392;-70
2021/06/11 00:17:49;;;;;;;8.63;5.10;;;20.20;75.20;;;;;;4953128;28;20065;-69
2021/06/11 00:20:15;;;;;;;9.00;5.40;;;20.10;75.40;;;;;;4954281;28;20472;-70
2021/06/11 00:22:41;;;;;;;8.13;5.22;;;20.10;75.30;;;;;;4954358;28;20019;-69
2021/06/11 00:25:09;;;;;;;8.15;5.65;;;20.10;75.20;;;;;;4954064;28;20439;-69
2021/06/11 00:27:34;;;;;;;8.75;6.28;;;20.00;75.30;;;;;;4953650;28;20034;-70
2021/06/11 00:30:01;;;;;;;6.72;5.95;;;20.00;75.10;;;;;;4953896;28;20231;-69
2021/06/11 00:32:27;;;;;;;7.28;5.13;;;20.10;75.10;;;;;;4953885;28;20498;-70
2021/06/11 00:34:52;;;;;;;6.70;5.60;;;20.10;74.80;;;;;;4953713;28;20034;-70
2021/06/11 00:37:18;;;;;;;6.63;5.35;;;20.00;74.50;;;;;;4954003;28;20114;-70
2021/06/11 00:39:44;;;;;;;4.70;4.30;;;20.00;74.60;;;;;;4954095;28;20357;-69
2021/06/11 00:42:09;;;;;;;6.00;4.30;;;20.00;74.20;;;;;;4954065;28;20077;-69
2021/06/11 00:44:35;;;;;;;6.03;4.35;;;20.00;73.80;;;;;;4954204;28;20086;-69
2021/06/11 00:47:01;;;;;;;7.15;4.43;;;20.00;73.40;;;;;;4953859;28;20102;-69
2021/06/11 00:49:26;;;;;;;8.60;4.38;;;19.90;73.50;;;;;;4953611;28;20073;-69
2021/06/11 00:51:53;;;;;;;6.53;4.22;;;19.90;74.50;;;;;;4953837;28;20061;-70
2021/06/11 00:54:20;;;;;;;7.53;4.18;;;19.90;73.70;;;;;;4953775;28;20028;-69
2021/06/11 00:56:46;;;;;;;7.25;4.25;;;19.90;73.30;;;;;;4953877;28;20038;-69
2021/06/11 00:59:12;;;;;;;5.75;4.32;;;20.00;72.90;;;;;;4949603;28;20470;-70
2021/06/11 01:01:41;;;;;;;9.55;4.65;;;19.90;73.10;;;;;;4951017;28;20031;-70
2021/06/11 01:04:07;;;;;;;7.15;4.47;;;19.90;73.30;;;;;;4951070;28;20019;-69
2021/06/11 01:06:32;;;;;;;8.23;5.50;;;19.80;73.50;;;;;;4953311;28;20027;-69
2021/06/11 01:08:59;;;;;;;6.20;5.20;;;19.80;73.70;;;;;;4953425;28;20042;-70
2021/06/11 01:11:27;;;;;;;8.35;5.57;;;19.80;74.30;;;;;;4953210;28;20077;-69
2021/06/11 01:13:52;;;;;;;8.10;5.40;;;19.80;74.00;;;;;;4953222;28;20027;-69
2021/06/11 01:16:18;;;;;;;7.03;5.25;;;19.80;73.80;;;;;;4953289;28;20111;-71
2021/06/11 01:18:44;;;;;;;6.90;5.10;;;19.80;73.90;;;;;;5036292;28;20502;-69
2021/06/11 01:21:11;;;;;;;6.65;4.35;;;19.80;73.90;;;;;;4953156;28;20047;-69
2021/06/11 01:24:15;;;;;;;9.07;4.68;;;19.80;73.90;;;;;;4953446;28;20426;-70
2021/06/11 01:26:54;;;;;;;8.02;4.95;;;19.80;73.60;;;;;;4952723;28;20529;-69
2021/06/11 01:29:25;;;;;;;5.65;4.22;;;19.80;73.60;;;;;;4952679;28;20102;-70
2021/06/11 01:31:55;;;;;;;8.98;4.40;;;19.80;73.40;;;;;;4952673;28;20047;-69
2021/06/11 01:34:36;;;;;;;5.03;3.88;;;19.70;73.10;;;;;;4952928;28;20027;-70
2021/06/11 01:37:18;;;;;;;9.48;4.40;;;19.60;72.70;;;;;;4952862;28;20035;-69
2021/06/11 01:39:55;;;;;;;5.70;3.78;;;19.50;72.80;;;;;;4952809;28;20560;-69
2021/06/11 01:42:21;;;;;;;4.63;3.55;;;19.50;73.40;;;;;;4953021;28;20062;-70
2021/06/11 01:44:48;;;;;;;6.50;3.95;;;19.50;73.40;;;;;;4953048;28;20059;-69
2021/06/11 01:47:16;;;;;;;4.63;3.88;;;19.50;73.40;;;;;;4952935;28;20380;-69
2021/06/11 01:49:46;;;;;;;9.32;4.72;;;19.50;73.20;;;;;;4952983;28;20030;-69
2021/06/11 01:52:13;;;;;;;5.10;3.83;;;19.50;73.20;;;;;;4952581;28;20397;-69
2021/06/11 01:54:43;;;;;;;6.10;3.78;;;19.50;73.20;;;;;;4952789;28;20024;-69
2021/06/11 01:57:09;;;;;;;8.13;3.92;;;19.50;73.20;;;;;;4952938;28;20031;-69
2021/06/11 01:59:36;;;;;;;6.68;4.05;;;19.50;73.40;;;;;;4951727;28;20035;-69
2021/06/11 02:02:03;;;;;;;4.57;3.90;;;19.50;73.10;;;;;;4953108;28;20065;-69
2021/06/11 02:04:30;;;;;;;7.57;4.00;;;19.50;72.80;;;;;;4952513;28;20037;-69
2021/06/11 02:06:56;;;;;;;6.93;4.03;;;19.50;73.20;;;;;;4952798;28;20023;-70
2021/06/11 02:09:23;;;;;;;4.22;3.55;;;19.50;73.40;;;;;;4952591;28;20046;-69
2021/06/11 02:11:50;;;;;;;11.95;5.05;;;19.50;73.20;;;;;;4952679;28;20023;-69
2021/06/11 02:14:17;;;;;;;6.05;3.58;;;19.50;73.30;;;;;;4952595;28;20476;-69
2021/06/11 02:16:44;;;;;;;5.18;3.65;;;19.50;73.20;;;;;;4952589;28;20395;-69
2021/06/11 02:19:11;;;;;;;8.50;3.75;;;19.50;72.80;;;;;;4952354;28;20071;-69
2021/06/11 02:21:39;;;;;;;6.57;4.03;;;19.50;72.80;;;;;;4952616;28;20027;-70
2021/06/11 02:24:06;;;;;;;9.50;4.20;;;19.60;72.80;;;;;;4952536;28;20026;-69
2021/06/11 02:26:33;;;;;;;7.95;4.45;;;19.60;72.60;;;;;;4952403;28;20102;-70
2021/06/11 02:28:58;;;;;;;7.40;5.30;;;19.50;72.60;;;;;;4952443;28;20027;-69
2021/06/11 02:31:24;;;;;;;6.13;5.18;;;19.40;72.30;;;;;;4952074;28;20034;-69
2021/06/11 02:33:50;;;;;;;10.48;6.07;;;19.40;72.50;;;;;;4952141;28;20047;-70
2021/06/11 02:36:16;;;;;;;7.95;5.65;;;19.40;72.70;;;;;;4952359;28;20495;-69
2021/06/11 02:38:42;;;;;;;7.60;5.00;;;19.30;72.80;;;;;;4951948;28;20114;-69
2021/06/11 02:41:10;;;;;;;8.02;5.00;;;19.20;73.30;;;;;;4952161;28;20106;-69
2021/06/11 02:43:40;;;;;;;7.22;4.95;;;19.30;73.60;;;;;;4952576;28;20111;-70
2021/06/11 02:46:40;;;;;;;8.13;4.75;;;19.20;73.50;;;;;;4952217;28;20353;-69
2021/06/11 02:49:13;;;;;;;8.80;5.10;;;19.20;73.50;;;;;;4954886;28;20044;-69
2021/06/11 02:51:47;;;;;;;5.55;4.90;;;19.20;73.50;;;;;;4952216;28;20549;-70
2021/06/11 02:54:23;;;;;;;6.32;4.78;;;19.20;73.40;;;;;;4952146;28;20032;-70
2021/06/11 02:56:56;;;;;;;10.73;5.20;;;19.10;73.90;;;;;;4952265;28;20031;-69
2021/06/11 02:59:33;;;;;;;6.20;5.15;;;19.20;73.70;;;;;;4951819;28;20035;-69
2021/06/11 03:02:10;;;;;;;6.97;5.00;;;19.20;73.40;;;;;;4951849;28;20115;-70
2021/06/11 03:04:43;;;;;;;10.50;4.65;;;19.10;73.20;;;;;;4951994;28;20409;-69
2021/06/11 03:07:16;;;;;;;10.40;5.18;;;19.10;73.40;;;;;;4952127;28;20085;-69
2021/06/11 03:09:42;;;;;;;6.15;4.82;;;19.00;73.10;;;;;;4952031;28;20024;-69
2021/06/11 03:12:10;;;;;;;8.48;5.13;;;19.00;73.00;;;;;;4954536;28;20379;-69
2021/06/11 03:14:37;;;;;;;8.75;5.20;;;18.90;73.10;;;;;;4955394;28;20192;-70
2021/06/11 03:17:03;;;;;;;6.30;4.90;;;18.90;73.30;;;;;;4955195;28;20023;-69
2021/06/11 03:19:34;;;;;;;5.82;5.22;;;18.80;73.40;;;;;;4955081;28;20050;-69
2021/06/11 03:22:14;;;;;;;6.45;5.47;;;18.80;73.70;;;;;;4955096;28;20027;-70
2021/06/11 03:25:01;;;;;;;8.13;4.88;;;18.90;73.50;;;;;;4953716;28;20034;-69
2021/06/11 03:27:37;;;;;;;8.45;4.88;;;18.80;73.30;;;;;;4955285;28;20115;-71
2021/06/11 03:30:15;;;;;;;7.15;4.65;;;18.90;73.30;;;;;;4955137;28;20019;-70
2021/06/11 03:32:51;;;;;;;8.40;4.55;;;18.90;73.40;;;;;;4954811;28;20059;-69
2021/06/11 03:35:21;;;;;;;10.75;4.32;;;18.90;73.40;;;;;;4955286;28;20029;-70
2021/06/11 03:37:50;;;;;;;4.20;3.88;;;18.90;73.10;;;;;;4955142;28;20032;-69
2021/06/11 03:40:21;;;;;;;6.63;4.20;;;18.80;72.90;;;;;;4955213;28;20031;-69
2021/06/11 03:42:48;;;;;;;5.60;3.83;;;18.80;73.20;;;;;;4955018;28;20096;-69
2021/06/11 03:45:15;;;;;;;9.20;3.70;;;18.80;73.00;;;;;;4953363;28;20027;-69
2021/06/11 03:47:42;;;;;;;6.25;4.07;;;18.80;73.80;;;;;;4954742;28;20020;-69
2021/06/11 03:50:09;;;;;;;5.15;3.22;;;18.70;73.70;;;;;;4954580;28;20035;-70
2021/06/11 03:52:39;;;;;;;4.10;3.38;;;18.70;73.70;;;;;;4954690;28;20114;-69
2021/06/11 03:55:18;;;;;;;7.97;3.72;;;18.70;73.80;;;;;;4954807;28;20027;-70
2021/06/11 03:57:53;;;;;;;9.00;3.83;;;18.80;74.10;;;;;;4954447;28;20089;-70
2021/06/11 04:00:21;;;;;;;6.10;4.07;;;18.80;74.40;;;;;;4954341;28;20171;-70
2021/06/11 04:02:47;;;;;;;11.73;4.10;;;18.80;74.40;;;;;;4954565;28;20024;-69
2021/06/11 04:05:14;;;;;;;6.82;4.20;;;18.80;74.40;;;;;;4954466;28;20395;-70
2021/06/11 04:07:58;;;;;;;14.93;4.40;;;18.80;74.50;;;;;;4954645;28;20027;-70
2021/06/11 04:10:43;;;;;;;6.60;4.18;;;18.90;74.30;;;;;;4954618;28;20395;-70
2021/06/11 04:13:20;;;;;;;8.15;4.00;;;18.90;74.30;;;;;;4954509;28;20415;-70
2021/06/11 04:15:50;;;;;;;9.43;4.47;;;18.90;74.10;;;;;;4954637;28;20426;-70
2021/06/11 04:18:21;;;;;;;8.40;4.43;;;18.90;74.10;;;;;;4954495;28;20041;-70
2021/06/11 04:20:52;;;;;;;9.27;4.57;;;18.90;74.50;;;;;;4954565;28;20020;-70
2021/06/11 04:23:20;;;;;;;8.05;3.92;;;19.00;74.60;;;;;;4953795;28;20066;-70
2021/06/11 04:25:48;;;;;;;7.80;3.95;;;19.00;74.80;;;;;;4954215;28;20019;-70
2021/06/11 04:28:14;;;;;;;11.13;4.30;;;19.00;74.60;;;;;;4953906;28;20019;-70
2021/06/11 04:30:40;;;;;;;13.02;4.35;;;19.00;75.10;;;;;;4953846;28;20059;-71
2021/06/11 04:33:24;;;;;;;6.78;4.03;;;19.00;74.60;;;;;;4953660;28;20079;-70
2021/06/11 04:35:50;;;;;;;6.53;4.00;;;19.10;74.10;;;;;;4953992;28;20472;-70
2021/06/11 04:38:16;;;;;;;7.25;3.60;;;19.10;74.00;;;;;;4953922;28;20031;-69
2021/06/11 04:40:42;;;;;;;11.63;4.07;;;19.10;74.20;;;;;;4953841;28;20533;-70
2021/06/11 04:43:08;;;;;;;6.15;4.10;;;19.10;74.30;;;;;;4953990;28;20031;-70
2021/06/11 04:45:37;;;;;;;11.93;4.35;;;19.10;74.80;;;;;;4953980;28;20055;-70
2021/06/11 04:48:03;;;;;;;9.68;4.35;;;19.20;75.20;;;;;;4953645;28;20027;-70
2021/06/11 04:50:29;;;;;;;13.60;4.40;;;19.20;74.80;;;;;;4953871;28;20035;-71
2021/06/11 04:52:55;;;;;;;9.60;4.30;;;19.20;74.60;;;;;;4953642;28;20030;-71
2021/06/11 04:55:21;;;;;;;10.38;4.32;;;19.20;75.30;;;;;;4953953;28;20031;-71
2021/06/11 04:57:48;;;;;;;9.48;4.70;;;19.30;75.10;;;;;;4953560;28;20081;-72
2021/06/11 05:00:14;;;;;;;9.50;4.32;;;19.30;75.20;;;;;;4953560;28;20082;-72
2021/06/11 05:02:40;;;;;;;7.78;3.85;;;19.30;75.10;;;;;;4953652;28;20077;-72
2021/06/11 05:05:06;;;;;;;7.00;4.05;;;19.40;74.60;;;;;;4953329;28;20031;-72
2021/06/11 05:07:31;;;;;;;6.05;4.07;;;19.50;74.30;;;;;;4953702;28;20051;-73
2021/06/11 05:09:58;;;;;;;8.13;4.40;;;19.50;74.20;;;;;;4953412;28;20059;-72
2021/06/11 05:12:24;;;;;;;10.57;4.50;;;19.60;74.20;;;;;;4952464;28;20032;-72
2021/06/11 05:14:49;;;;;;;13.63;4.55;;;19.60;74.30;;;;;;4953107;28;20093;-72
2021/06/11 05:17:15;;;;;;;10.05;4.32;;;19.60;74.00;;;;;;4953363;28;20051;-72
2021/06/11 05:19:41;;;;;;;13.45;4.25;;;19.70;74.20;;;;;;4953104;28;20042;-71
2021/06/11 05:22:07;;;;;;;8.88;4.28;;;19.70;74.60;;;;;;4953815;28;20015;-72
2021/06/11 05:24:32;;;;;;;9.32;4.53;;;19.70;74.90;;;;;;4953241;28;20038;-71
2021/06/11 05:26:58;;;;;;;7.20;4.38;;;19.80;74.80;;;;;;4953267;28;20158;-72
2021/06/11 05:29:24;;;;;;;8.93;3.97;;;19.80;74.80;;;;;;4951328;28;20047;-72
2021/06/11 05:31:50;;;;;;;7.80;3.90;;;19.80;74.20;;;;;;4952678;28;20026;-72
2021/06/11 05:34:15;;;;;;;5.72;3.88;;;19.90;73.80;;;;;;4952011;28;20042;-71
2021/06/11 05:36:41;;;;;;;4.05;3.30;;;20.00;73.50;;;;;;4952830;28;20424;-71
2021/06/11 05:39:07;;;;;;;5.15;3.38;;;19.90;72.90;;;;;;4953186;28;20480;-70
2021/06/11 05:41:33;;;;;;;5.22;2.88;;;20.00;72.90;;;;;;4952856;28;20049;-70
2021/06/11 05:43:59;;;;;;;4.43;3.13;;;20.00;72.50;;;;;;4952090;28;20539;-71
2021/06/11 05:46:24;;;;;;;6.70;2.90;;;20.00;73.00;;;;;;4952509;28;20039;-70
2021/06/11 05:48:50;;;;;;;5.32;2.90;;;20.10;72.60;;;;;;4952340;28;20090;-70
2021/06/11 05:51:16;;;;;;;4.82;3.08;;;20.10;72.90;;;;;;4952322;28;20480;-70
2021/06/11 05:53:42;;;;;;;5.95;3.45;;;20.10;72.30;;;;;;4951607;28;20065;-70
2021/06/11 05:56:08;;;;;;;15.27;3.50;;;20.20;71.90;;;;;;4953199;28;20038;-70
2021/06/11 05:58:35;;;;;;;7.03;3.30;;;20.20;71.50;;;;;;4951366;28;20074;-70
2021/06/11 06:01:00;;;;;;;6.75;3.30;;;20.30;71.20;;;;;;4958929;28;20440;-70
2021/06/11 06:03:26;;;;;;;5.20;2.97;;;20.30;71.40;;;;;;4967544;28;20110;-70
2021/06/11 06:05:52;;;;;;;13.77;3.30;;;20.30;71.40;;;;;;4969655;28;20072;-69
2021/06/11 06:08:18;;;;;;;7.93;3.35;;;20.30;71.40;;;;;;4971223;28;20053;-69
2021/06/11 06:10:44;;;;;;;5.60;3.20;;;20.40;71.70;;;;;;4971459;28;20463;-70
2021/06/11 06:13:09;;;;;;;5.32;3.20;;;20.40;71.70;;;;;;4970593;28;20094;-69
2021/06/11 06:15:35;;;;;;;7.18;3.38;;;20.40;71.20;;;;;;4970968;28;20375;-70
2021/06/11 06:18:01;;;;;;;3.85;3.20;;;20.50;71.20;;;;;;4969687;28;20449;-70
2021/06/11 06:20:27;;;;;;;7.75;3.95;;;20.50;71.20;;;;;;4968450;28;20031;-70
2021/06/11 06:22:53;;;;;;;3.60;3.15;;;20.50;70.80;;;;;;4968850;28;20046;-69
2021/06/11 06:25:18;;;;;;;4.65;2.90;;;20.60;70.50;;;;;;4971333;28;20149;-70
2021/06/11 06:27:44;;;;;;;3.88;3.13;;;20.60;70.50;;;;;;4970873;28;20031;-69
2021/06/11 06:30:12;;;;;;;5.65;3.05;;;20.60;69.90;;;;;;4970618;28;20034;-69
2021/06/11 06:32:38;;;;;;;6.32;3.25;;;20.60;69.40;;;;;;4969576;28;20074;-68
2021/06/11 06:35:06;;;;;;;5.70;3.25;;;20.60;70.30;;;;;;4970925;28;20055;-70
2021/06/11 06:37:31;;;;;;;14.40;4.35;;;20.70;70.90;;;;;;4971357;28;20026;-69
2021/06/11 06:39:57;;;;;;;12.75;3.40;;;20.70;70.60;;;;;;4971317;28;20102;-69
2021/06/11 06:42:23;;;;;;;4.82;3.40;;;20.70;70.70;;;;;;4971857;28;20023;-69
2021/06/11 06:44:49;;;;;;;4.20;3.00;;;20.80;70.90;;;;;;4970491;28;20034;-69
2021/06/11 06:47:15;;;;;;;6.03;3.03;;;20.70;70.60;;;;;;4970356;28;20403;-69
2021/06/11 06:49:41;;;;;;;6.10;3.20;;;20.80;70.30;;;;;;4970722;28;20027;-70
2021/06/11 06:52:07;;;;;;;8.77;3.50;;;20.80;70.00;;;;;;4971264;28;20038;-71
2021/06/11 06:54:33;;;;;;;9.88;3.38;;;20.90;70.60;;;;;;4970678;28;20050;-69
2021/06/11 06:56:59;;;;;;;3.85;2.65;;;20.90;69.80;;;;;;4970080;28;20039;-69
2021/06/11 06:59:25;;;;;;;8.43;2.85;;;20.90;69.10;;;;;;4971298;28;20039;-69
2021/06/11 07:01:56;;;;;;;4.20;2.90;;;21.00;68.80;;;;;;4971169;28;20023;-68
2021/06/11 07:04:23;;;;;;;5.37;2.80;;;21.00;68.90;;;;;;4969849;28;20390;-68
2021/06/11 07:06:50;;;;;;;5.05;2.88;;;21.00;68.90;;;;;;4971321;28;20365;-70
2021/06/11 07:09:17;;;;;;;9.52;3.08;;;21.00;69.40;;;;;;4971074;28;20030;-70
2021/06/11 07:11:43;;;;;;;6.82;2.97;;;21.10;69.80;;;;;;4971048;28;20081;-69
2021/06/11 07:14:08;;;;;;;7.25;2.83;;;21.10;69.90;;;;;;4970983;28;20039;-69
2021/06/11 07:16:34;;;;;;;4.80;2.80;;;21.10;68.90;;;;;;4971233;28;20019;-69
2021/06/11 07:19:00;;;;;;;7.25;2.95;;;21.10;68.20;;;;;;4971236;28;20137;-69
2021/06/11 07:21:26;;;;;;;7.15;2.92;;;21.10;68.70;;;;;;4970933;28;20090;-70
2021/06/11 07:23:51;;;;;;;5.93;3.42;;;21.10;69.20;;;;;;4970086;28;20483;-68
2021/06/11 07:26:17;;;;;;;7.85;2.83;;;21.20;69.90;;;;;;4969947;28;20066;-69
2021/06/11 07:28:43;;;;;;;3.90;2.63;;;21.20;69.20;;;;;;4971053;28;20041;-70
2021/06/11 07:31:08;;;;;;;5.63;2.67;;;21.20;69.00;;;;;;4971195;28;20027;-69
2021/06/11 07:33:35;;;;;;;8.07;2.97;;;21.30;69.30;;;;;;4971099;28;20079;-69
2021/06/11 07:36:02;;;;;;;8.63;2.97;;;21.30;68.50;;;;;;4971116;28;20019;-70
2021/06/11 07:38:28;;;;;;;5.95;3.00;;;21.40;68.30;;;;;;4971024;28;20039;-68
2021/06/11 07:40:54;;;;;;;6.85;2.83;;;21.40;68.20;;;;;;4970991;28;20471;-70
2021/06/11 07:43:21;;;;;;;7.45;2.65;;;21.50;68.30;;;;;;4971047;28;20027;-69
2021/06/11 07:45:48;;;;;;;9.10;3.00;;;21.50;68.10;;;;;;4971113;28;20027;-70
2021/06/11 07:48:13;;;;;;;3.83;2.72;;;21.60;68.30;;;;;;4970853;28;20463;-69
2021/06/11 07:50:40;;;;;;;7.07;2.70;;;21.60;67.90;;;;;;4970903;28;20037;-69
2021/06/11 07:53:05;;;;;;;3.47;2.95;;;21.60;67.90;;;;;;4970965;28;20027;-69
2021/06/11 07:55:32;;;;;;;6.25;3.00;;;21.70;68.10;;;;;;4970943;28;20088;-69
2021/06/11 07:57:59;;;;;;;5.13;2.80;;;21.70;68.30;;;;;;4971724;28;20046;-68
2021/06/11 08:00:26;;;;;;;10.48;2.95;;;21.70;68.20;;;;;;4974044;28;20030;-68
2021/06/11 08:03:01;;;;;;;8.02;3.40;;;21.70;67.80;;;;;;4974164;28;20019;-68
2021/06/11 08:05:27;;;;;;;5.60;3.97;;;21.70;68.20;;;;;;4974141;28;20107;-68
2021/06/11 08:07:54;;;;;;;5.82;4.50;;;21.80;67.50;;;;;;4973732;28;20172;-70
2021/06/11 08:10:20;;;;;;;6.10;4.63;;;21.70;67.40;;;;;;4974022;28;20073;-69
2021/06/11 08:12:46;;;;;;;8.88;4.03;;;21.90;67.60;;;;;;4973968;28;20030;-69
2021/06/11 08:15:13;;;;;;;8.77;3.35;;;21.90;67.60;;;;;;4973629;28;20536;-69
2021/06/11 08:17:38;;;;;;;4.18;2.85;;;21.90;67.20;;;;;;4973709;28;20407;-71
2021/06/11 08:20:10;;;;;;;5.05;3.15;;;22.00;67.30;;;;;;4973826;28;20023;-70
2021/06/11 08:22:38;;;;;;;10.02;3.25;;;22.00;67.30;;;;;;4973762;28;20490;-69
2021/06/11 08:25:06;;;;;;;5.95;2.63;;;22.10;68.00;;;;;;4973631;28;20117;-69
2021/06/11 08:27:32;;;;;;;3.85;2.60;;;22.20;67.90;;;;;;4973682;28;20030;-70
2021/06/11 08:29:58;;;;;;;4.60;2.50;;;22.30;66.60;;;;;;4973629;28;20023;-70
2021/06/11 08:32:24;;;;;;;4.43;2.90;;;22.40;65.50;;;;;;4974104;28;20076;-69
2021/06/11 08:34:50;;;;;;;7.28;2.90;;;22.50;66.50;;;;;;4973570;28;20023;-69
2021/06/11 08:37:15;;;;;;;3.13;2.75;;;22.60;65.90;;;;;;4973602;28;20031;-69
2021/06/11 08:39:41;;;;;;;2.75;2.22;;;22.70;64.80;;;;;;4973360;28;20503;-70
2021/06/11 08:42:08;;;;;;;3.90;2.63;;;22.80;63.80;;;;;;4973485;28;20027;-69
2021/06/11 08:44:36;;;;;;;4.40;2.60;;;22.90;64.00;;;;;;4972758;28;20429;-68
2021/06/11 08:47:01;;;;;;;6.15;3.25;;;23.00;64.90;;;;;;4972113;28;20053;-69
2021/06/11 08:49:27;;;;;;;6.43;2.72;;;23.10;65.30;;;;;;4972341;28;20035;-69
2021/06/11 08:51:59;;;;;;;5.90;2.92;;;23.10;65.30;;;;;;4993088;28;20021;-70
2021/06/11 08:54:26;;;;;;;4.88;2.83;;;23.20;64.90;;;;;;5039640;28;20042;-69
2021/06/11 08:56:53;;;;;;;7.88;2.72;;;23.30;64.80;;;;;;4953376;28;20019;-70
2021/06/11 08:59:19;;;;;;;4.93;2.80;;;23.30;63.10;;;;;;4953372;28;20442;-71
2021/06/11 09:01:45;;;;;;;3.85;2.70;;;23.30;63.20;;;;;;4992266;28;20481;-70
2021/06/11 09:04:10;;;;;;;5.88;2.92;;;23.30;63.50;;;;;;5054223;28;20068;-70
2021/06/11 09:06:36;;;;;;;4.35;2.97;;;23.40;63.50;;;;;;5054648;28;20028;-70
2021/06/11 09:09:03;;;;;;;6.47;2.83;;;23.40;64.20;;;;;;5054039;28;20025;-69
2021/06/11 09:11:36;;;;;;;3.03;2.58;;;23.50;63.60;;;;;;5054164;28;20108;-70
2021/06/11 09:14:09;;;;;;;4.55;2.67;;;23.50;63.90;;;;;;5052882;28;20029;-70
2021/06/11 09:16:47;;;;;;;6.88;2.53;;;23.50;64.20;;;;;;5054365;28;20108;-69
2021/06/11 09:19:18;;;;;;;6.03;2.95;;;23.60;64.80;;;;;;5053935;28;20044;-71
2021/06/11 09:21:58;;;;;;;8.20;2.80;;;23.70;64.40;;;;;;5053969;28;20062;-70
2021/06/11 09:24:32;;;;;;;5.50;2.65;;;23.80;64.70;;;;;;5053992;28;20033;-71
2021/06/11 09:27:01;;;;;;;5.40;2.65;;;23.90;64.40;;;;;;5053903;28;20029;-69
2021/06/11 09:29:31;;;;;;;8.32;3.03;;;23.90;64.40;;;;;;5054309;28;20104;-69
2021/06/11 09:32:27;;;;;;;5.20;2.83;;;24.00;61.30;;;;;;5053272;28;20029;-71
2021/06/11 09:34:59;;;;;;;2.63;2.33;;;24.00;60.70;;;;;;5052016;28;20068;-70
2021/06/11 09:37:30;;;;;;;5.70;2.30;;;24.00;61.90;;;;;;5053513;28;20067;-70
2021/06/11 09:39:57;;;;;;;5.40;2.08;;;24.00;60.40;;;;;;5053007;28;20041;-70
2021/06/11 09:42:25;;;;;;;3.30;1.92;;;24.00;60.00;;;;;;5052709;28;20611;-69
2021/06/11 09:45:04;;;;;;;1.85;1.75;;;24.00;59.20;;;;;;5052650;28;20465;-69
2021/06/11 09:47:45;;;;;;;3.85;2.30;;;24.10;57.20;;;;;;5053252;28;20025;-69
2021/06/11 09:50:16;;;;;;;3.67;2.10;;;24.00;57.30;;;;;;5053830;28;20025;-70
2021/06/11 09:53:02;;;;;;;5.93;2.40;;;24.00;56.60;;;;;;5052491;28;20545;-70
2021/06/11 09:55:40;;;;;;;4.93;2.15;;;24.00;56.80;;;;;;5053944;28;20086;-70
2021/06/11 09:58:07;;;;;;;7.57;2.28;;;24.00;57.60;;;;;;5053727;28;20045;-70
2021/06/11 10:00:35;;;;;;;4.75;2.30;;;24.00;57.40;;;;;;5053702;28;20033;-70
2021/06/11 10:03:01;;;;;;;4.75;2.70;;;24.00;58.60;;;;;;5053445;28;20429;-70
2021/06/11 10:05:31;;;;;;;3.65;2.10;;;23.90;59.20;;;;;;5053167;28;20485;-69
2021/06/11 10:07:58;;;;;;;6.90;2.55;;;23.90;59.10;;;;;;5053794;28;20028;-69
2021/06/11 10:10:24;;;;;;;3.15;2.10;;;24.00;58.80;;;;;;5053568;28;20025;-69
2021/06/11 10:12:49;;;;;;;3.40;2.40;;;24.00;59.70;;;;;;5053585;28;20090;-69
2021/06/11 10:15:16;;;;;;;10.15;4.85;;;24.00;59.70;;;;;;5053552;28;20028;-70
2021/06/11 10:17:44;;;;;;;7.15;4.00;;;24.10;58.20;;;;;;5053043;28;20021;-70
2021/06/11 10:20:11;;;;;;;3.28;2.45;;;24.20;57.90;;;;;;4983303;28;20043;-69
2021/06/11 10:22:38;;;;;;;2.75;2.40;;;24.30;58.50;;;;;;4950868;28;20082;-69
2021/06/11 10:25:08;;;;;;;5.75;3.45;;;24.40;58.00;;;;;;4952557;28;20031;-70
2021/06/11 10:27:35;;;;;;;13.30;2.72;;;24.40;60.40;;;;;;4952296;28;20098;-70
2021/06/11 10:30:02;;;;;;;6.70;3.97;;;24.60;60.90;;;;;;4951634;28;20027;-71
2021/06/11 10:32:28;;;;;;;10.18;3.80;;;24.80;62.20;;;;;;4951870;28;20130;-71
2021/06/11 10:34:55;;;;;;;8.30;2.80;;;25.00;62.00;;;;;;4952272;28;20102;-71
2021/06/11 10:37:40;;;;;;;5.40;2.65;;;25.20;60.80;;;;;;4952331;28;20529;-72
2021/06/11 10:40:15;;;;;;;5.07;2.70;;;25.40;58.80;;;;;;4952612;28;20039;-71
2021/06/11 10:42:41;;;;;;;5.03;2.60;;;25.40;59.70;;;;;;4952385;28;20075;-71
2021/06/11 10:45:07;;;;;;;6.80;2.50;;;25.50;58.60;;;;;;4952413;28;20089;-71
2021/06/11 10:47:34;;;;;;;5.72;2.60;;;25.40;57.00;;;;;;4952362;28;20016;-70
2021/06/11 10:50:00;;;;;;;2.42;2.15;;;25.40;57.10;;;;;;4952179;28;20030;-72
2021/06/11 10:52:29;;;;;;;5.50;2.50;;;25.40;57.50;;;;;;4951961;28;20019;-70
2021/06/11 10:54:55;;;;;;;8.13;2.92;;;25.30;55.10;;;;;;4951739;28;20090;-71
2021/06/11 10:57:21;;;;;;;3.15;2.20;;;25.30;57.60;;;;;;4951821;28;20031;-71
2021/06/11 10:59:49;;;;;;;3.63;2.35;;;25.20;56.80;;;;;;4949096;28;20403;-72
2021/06/11 11:02:16;;;;;;;4.03;2.30;;;25.20;57.30;;;;;;4949413;28;20050;-71
2021/06/11 11:04:50;;;;;;;6.20;2.35;;;25.20;55.30;;;;;;4951435;28;20038;-71
2021/06/11 11:07:36;;;;;;;3.40;2.50;;;25.10;54.80;;;;;;4952007;28;20016;-70
2021/06/11 11:10:05;;;;;;;4.40;2.90;;;25.10;57.60;;;;;;4951936;28;20105;-70
2021/06/11 11:13:16;;;;;;;3.72;2.22;;;25.10;55.40;;;;;;4951946;28;20158;-71
2021/06/11 11:15:43;;;;;;;3.07;2.23;;;25.00;55.40;;;;;;4954278;28;20046;-70
2021/06/11 11:18:10;;;;;;;2.50;2.30;;;25.00;57.50;;;;;;4949632;28;20515;-71
2021/06/11 11:20:38;;;;;;;3.40;2.60;;;25.00;57.20;;;;;;4949960;28;20023;-71
2021/06/11 11:23:09;;;;;;;5.72;2.45;;;25.00;58.00;;;;;;4950287;28;20488;-71
2021/06/11 11:25:35;;;;;;;3.95;2.40;;;25.10;58.20;;;;;;4948356;28;20483;-71
2021/06/11 11:28:03;;;;;;;3.60;2.88;;;25.10;58.10;;;;;;4948315;28;20039;-71
2021/06/11 11:30:30;;;;;;;3.40;2.53;;;25.10;57.60;;;;;;4949906;28;20402;-71
2021/06/11 11:32:57;;;;;;;5.22;2.50;;;25.30;58.40;;;;;;4951060;28;20077;-71
2021/06/11 11:35:25;;;;;;;3.90;2.47;;;25.50;57.60;;;;;;4954455;28;20505;-71
2021/06/11 11:37:52;;;;;;;3.33;2.40;;;25.60;56.80;;;;;;4954731;28;20125;-71
2021/06/11 11:40:18;;;;;;;2.60;2.40;;;25.80;54.40;;;;;;4954820;28;20491;-70
2021/06/11 11:42:44;;;;;;;2.72;2.30;;;25.90;56.20;;;;;;4954902;28;20058;-71
2021/06/11 11:45:11;;;;;;;2.38;2.08;;;26.10;57.90;;;;;;4953013;28;20058;-72
2021/06/11 11:47:37;;;;;;;5.72;2.55;;;26.10;55.30;;;;;;4953768;28;20468;-71
2021/06/11 11:50:04;;;;;;;6.00;2.40;;;26.20;56.40;;;;;;4953475;28;20031;-71
2021/06/11 11:52:32;;;;;;;5.90;2.47;;;26.40;54.70;;;;;;4954731;28;20028;-71
2021/06/11 11:54:58;;;;;;;4.80;2.38;;;26.60;56.80;;;;;;4954761;28;20024;-71
2021/06/11 11:57:24;;;;;;;4.50;2.15;;;26.70;56.40;;;;;;4954509;28;20106;-71
2021/06/11 11:59:50;;;;;;;5.07;2.25;;;27.00;53.60;;;;;;4954451;28;20115;-70
2021/06/11 12:02:15;;;;;;;5.95;2.10;;;27.00;53.40;;;;;;4954557;28;20443;-72
2021/06/11 12:04:41;;;;;;;5.78;2.10;;;27.20;53.40;;;;;;4954559;28;20442;-71
2021/06/11 12:07:07;;;;;;;6.03;1.90;;;27.20;50.60;;;;;;4953427;28;20615;-71
2021/06/11 12:09:33;;;;;;;3.58;2.13;;;27.30;50.80;;;;;;4953651;28;20032;-72
2021/06/11 12:11:59;;;;;;;4.72;2.10;;;;;;;;;;4954749;28;20054;-70
2021/06/11 12:14:24;;;;;;;3.53;2.15;;;27.30;47.80;;;;;;4954620;28;20035;-71
2021/06/11 12:16:51;;;;;;;2.05;1.85;;;27.20;51.10;;;;;;4952347;28;20028;-70
2021/06/11 12:19:17;;;;;;;2.78;2.10;;;27.20;51.50;;;;;;4951096;28;20491;-71
2021/06/11 12:21:43;;;;;;;4.40;2.22;;;27.20;50.80;;;;;;4951908;28;20507;-71
2021/06/11 12:24:08;;;;;;;4.53;2.08;;;27.20;51.40;;;;;;4954098;28;20035;-71
2021/06/11 12:26:34;;;;;;;2.25;1.90;;;27.00;51.50;;;;;;4953694;28;20042;-71
2021/06/11 12:29:01;;;;;;;3.33;1.90;;;27.00;49.10;;;;;;4953630;28;20368;-71
2021/06/11 12:31:29;;;;;;;2.72;2.05;;;26.80;47.00;;;;;;4954126;28;20027;-70
2021/06/11 12:33:54;;;;;;;4.80;2.00;;;26.70;50.00;;;;;;4953206;28;20047;-70
2021/06/11 12:36:20;;;;;;;3.38;2.08;;;26.60;50.10;;;;;;4953701;28;20379;-71
2021/06/11 12:38:46;;;;;;;5.53;2.15;;;26.70;49.30;;;;;;4953538;28;20497;-71
2021/06/11 12:41:15;;;;;;;7.32;2.30;;;26.70;53.00;;;;;;4953666;28;20031;-70
2021/06/11 12:46:25;;;;;;;9.05;2.70;;;26.90;48.30;;;;;;4954542;28;20038;-71
2021/06/11 12:48:51;;;;;;;3.78;2.00;;;26.90;50.10;;;;;;4953702;28;20027;-70
2021/06/11 12:51:17;;;;;;;3.13;2.05;;;27.00;51.20;;;;;;4952598;28;20034;-71
2021/06/11 12:53:43;;;;;;;4.53;2.38;;;27.00;52.20;;;;;;4953726;28;20066;-70